createdAt,value
2023-05-22T00:00:38.833Z,83.97
2023-05-22T00:01:42.833Z,84.18
2023-05-22T00:02:45.013Z,84.15
2023-05-22T00:03:46.951Z,84.28
2023-05-22T00:04:48.644Z,83.95
2023-05-22T00:05:50.708Z,84.26
2023-05-22T00:06:52.497Z,84.22
2023-05-22T00:07:56.594Z,84.16
2023-05-22T00:08:58.298Z,84.29
2023-05-22T00:10:00.110Z,84.08
2023-05-22T00:11:01.859Z,83.96
2023-05-22T00:12:03.673Z,84.43
2023-05-22T00:13:05.650Z,84.60
2023-05-22T00:14:07.398Z,84.31
2023-05-22T00:15:09.887Z,84.19
2023-05-22T00:16:11.520Z,84.76
2023-05-22T00:17:14.884Z,84.45
2023-05-22T00:18:16.891Z,84.43
2023-05-22T00:19:18.857Z,84.37
2023-05-22T00:20:20.520Z,83.83
2023-05-22T00:21:22.149Z,84.12
2023-05-22T00:22:23.840Z,84.27
2023-05-22T00:23:27.977Z,84.03
2023-05-22T00:24:29.723Z,83.81
2023-05-22T00:25:31.313Z,83.84
2023-05-22T00:26:32.923Z,83.80
2023-05-22T00:27:35.022Z,83.61
2023-05-22T00:28:36.634Z,83.89
2023-05-22T00:29:38.437Z,84.04
2023-05-22T00:30:40.474Z,83.97
2023-05-22T00:31:42.396Z,83.92
2023-05-22T00:32:44.194Z,84.14
2023-05-22T00:33:46.085Z,84.04
2023-05-22T00:34:47.782Z,83.88
2023-05-22T00:35:49.635Z,83.84
2023-05-22T00:36:52.615Z,83.51
2023-05-22T00:37:54.382Z,83.71
2023-05-22T00:38:56.059Z,83.93
2023-05-22T00:39:57.744Z,83.54
2023-05-22T00:41:03.992Z,83.73
2023-05-22T00:42:05.865Z,83.85
2023-05-22T00:43:08.904Z,84.03
2023-05-22T00:44:11.779Z,83.66
2023-05-22T00:45:14.822Z,83.70
2023-05-22T00:46:21.395Z,83.83
2023-05-22T00:47:24.365Z,83.74
2023-05-22T00:48:26.052Z,83.80
2023-05-22T00:49:29.393Z,83.75
2023-05-22T00:50:31.177Z,83.49
2023-05-22T00:51:33.175Z,83.75
2023-05-22T00:52:37.590Z,83.57
2023-05-22T00:53:39.318Z,83.83
2023-05-22T00:54:41.216Z,83.93
2023-05-22T00:55:44.264Z,83.90
2023-05-22T00:56:46.404Z,83.90
2023-05-22T00:57:48.264Z,83.89
2023-05-22T00:58:50.693Z,83.71
2023-05-22T00:59:52.522Z,84.21
2023-05-22T01:00:55.611Z,84.00
2023-05-22T01:01:58.433Z,83.88
2023-05-22T01:03:01.356Z,83.75
2023-05-22T01:04:05.210Z,83.74
2023-05-22T01:05:07.939Z,83.58
2023-05-22T01:06:09.740Z,83.80
2023-05-22T01:07:11.382Z,83.50
2023-05-22T01:08:13.044Z,83.52
2023-05-22T01:09:14.944Z,83.70
2023-05-22T01:10:16.624Z,83.32
2023-05-22T01:11:25.544Z,83.36
2023-05-22T01:12:56.072Z,82.90
2023-05-22T01:14:10.792Z,82.99
2023-05-22T01:15:32.010Z,83.36
2023-05-22T01:16:51.592Z,83.35
2023-05-22T01:18:05.641Z,83.39
2023-05-22T01:19:19.790Z,83.25
2023-05-22T01:20:38.899Z,83.16
2023-05-22T01:21:58.805Z,83.12
2023-05-22T01:23:37.687Z,83.33
2023-05-22T01:24:58.311Z,83.58
2023-05-22T01:26:31.888Z,83.62
2023-05-22T01:28:03.024Z,84.09
2023-05-22T01:29:19.638Z,84.13
2023-05-22T01:30:46.108Z,84.17
2023-05-22T01:31:50.331Z,83.56
2023-05-22T01:32:57.722Z,83.99
2023-05-22T01:34:03.444Z,83.83
2023-05-22T01:35:09.242Z,83.90
2023-05-22T01:36:13.496Z,83.75
2023-05-22T01:37:15.513Z,83.84
2023-05-22T01:38:17.392Z,83.97
2023-05-22T01:39:21.207Z,83.91
2023-05-22T01:40:23.747Z,84.22
2023-05-22T01:41:25.829Z,84.12
2023-05-22T01:42:27.830Z,84.02
2023-05-22T01:43:29.581Z,83.64
2023-05-22T01:44:31.474Z,83.58
2023-05-22T01:45:33.815Z,83.48
2023-05-22T01:46:37.235Z,83.41
2023-05-22T01:47:39.689Z,83.89
2023-05-22T01:48:41.363Z,84.19
2023-05-22T01:49:43.426Z,84.01
2023-05-22T01:50:47.664Z,83.97
2023-05-22T01:51:53.634Z,84.49
2023-05-22T01:53:25.701Z,84.33
2023-05-22T01:54:37.055Z,85.01
2023-05-22T01:55:57.728Z,85.06
2023-05-22T01:57:07.431Z,85.00
2023-05-22T01:58:22.528Z,84.78
2023-05-22T01:59:39.861Z,85.06
2023-05-22T02:00:45.969Z,85.00
2023-05-22T02:01:51.391Z,84.93
2023-05-22T02:03:03.118Z,85.75
2023-05-22T02:04:06.566Z,85.20
2023-05-22T02:05:11.670Z,85.09
2023-05-22T02:06:14.669Z,85.07
2023-05-22T02:07:19.620Z,85.18
2023-05-22T02:08:22.609Z,85.00
2023-05-22T02:09:29.450Z,84.75
2023-05-22T02:10:32.317Z,85.29
2023-05-22T02:11:35.379Z,85.51
2023-05-22T02:12:40.700Z,85.53
2023-05-22T02:13:42.686Z,85.48
2023-05-22T02:14:44.992Z,85.22
2023-05-22T02:15:47.662Z,85.16
2023-05-22T02:16:50.649Z,85.30
2023-05-22T02:17:53.440Z,85.54
2023-05-22T02:19:06.327Z,85.42
2023-05-22T02:20:16.821Z,85.34
2023-05-22T02:21:18.901Z,85.60
2023-05-22T02:22:20.679Z,85.37
2023-05-22T02:23:22.479Z,85.62
2023-05-22T02:24:24.112Z,85.85
2023-05-22T02:25:26.405Z,85.82
2023-05-22T02:26:29.012Z,85.74
2023-05-22T02:27:30.901Z,85.53
2023-05-22T02:28:33.246Z,85.35
2023-05-22T02:29:35.077Z,85.76
2023-05-22T02:30:37.208Z,85.99
2023-05-22T02:31:39.206Z,86.24
2023-05-22T02:32:41.870Z,86.14
2023-05-22T02:33:43.790Z,86.20
2023-05-22T02:34:45.960Z,86.29
2023-05-22T02:35:47.718Z,86.57
2023-05-22T02:36:51.008Z,86.37
2023-05-22T02:37:52.784Z,86.27
2023-05-22T02:38:55.490Z,86.25
2023-05-22T02:39:58.043Z,86.05
2023-05-22T02:40:59.940Z,86.29
2023-05-22T02:42:01.689Z,86.06
2023-05-22T02:43:03.501Z,86.08
2023-05-22T02:44:05.177Z,86.30
2023-05-22T02:45:08.568Z,86.34
2023-05-22T02:46:11.053Z,86.54
2023-05-22T02:47:12.760Z,86.36
2023-05-22T02:48:14.625Z,86.69
2023-05-22T02:49:16.779Z,86.57
2023-05-22T02:50:18.798Z,86.61
2023-05-22T02:51:20.449Z,86.63
2023-05-22T02:52:22.494Z,86.36
2023-05-22T02:53:24.183Z,86.52
2023-05-22T02:54:26.059Z,86.30
2023-05-22T02:55:27.679Z,86.22
2023-05-22T02:56:29.593Z,86.56
2023-05-22T02:57:31.463Z,86.46
2023-05-22T02:58:34.186Z,86.31
2023-05-22T02:59:38.787Z,86.44
2023-05-22T03:00:43.537Z,86.42
2023-05-22T03:01:46.516Z,86.30
2023-05-22T03:02:48.327Z,86.12
2023-05-22T03:03:50.889Z,85.98
2023-05-22T03:04:52.687Z,85.97
2023-05-22T03:05:58.506Z,86.18
2023-05-22T03:07:01.690Z,86.57
2023-05-22T03:08:03.650Z,86.20
2023-05-22T03:09:05.506Z,86.32
2023-05-22T03:10:07.620Z,86.17
2023-05-22T03:11:09.769Z,86.05
2023-05-22T03:12:11.398Z,85.98
2023-05-22T03:13:13.275Z,86.18
2023-05-22T03:14:15.342Z,86.27
2023-05-22T03:15:17.382Z,86.16
2023-05-22T03:16:19.706Z,85.96
2023-05-22T03:17:22.845Z,86.02
2023-05-22T03:18:27.224Z,85.70
2023-05-22T03:19:30.144Z,85.81
2023-05-22T03:20:32.767Z,86.13
2023-05-22T03:21:34.568Z,86.02
2023-05-22T03:22:36.294Z,86.20
2023-05-22T03:23:38.016Z,86.29
2023-05-22T03:24:39.830Z,86.43
2023-05-22T03:25:42.470Z,86.37
2023-05-22T03:26:44.433Z,86.20
2023-05-22T03:27:52.808Z,86.12
2023-05-22T03:28:55.408Z,86.12
2023-05-22T03:29:57.412Z,86.22
2023-05-22T03:30:59.140Z,86.12
2023-05-22T03:32:06.258Z,86.72
2023-05-22T03:33:10.566Z,86.63
2023-05-22T03:34:13.345Z,86.23
2023-05-22T03:35:19.668Z,86.04
2023-05-22T03:36:21.802Z,86.19
2023-05-22T03:37:23.579Z,85.99
2023-05-22T03:38:25.279Z,85.86
2023-05-22T03:39:27.503Z,86.20
2023-05-22T03:40:36.744Z,85.93
2023-05-22T03:41:39.670Z,85.96
2023-05-22T03:42:42.336Z,85.92
2023-05-22T03:43:45.136Z,85.92
2023-05-22T03:44:47.315Z,85.97
2023-05-22T03:45:49.024Z,86.24
2023-05-22T03:46:50.693Z,86.10
2023-05-22T03:47:52.362Z,86.07
2023-05-22T03:48:54.073Z,86.21
2023-05-22T03:49:55.951Z,86.51
2023-05-22T03:50:57.901Z,86.28
2023-05-22T03:51:59.648Z,86.44
2023-05-22T03:53:01.458Z,86.48
2023-05-22T03:54:03.051Z,86.56
2023-05-22T03:55:06.079Z,86.31
2023-05-22T03:56:07.681Z,86.64
2023-05-22T03:57:09.402Z,86.53
2023-05-22T03:58:11.036Z,86.67
2023-05-22T03:59:13.608Z,86.51
2023-05-22T04:00:17.065Z,86.49
2023-05-22T04:01:18.884Z,86.50
2023-05-22T04:02:21.152Z,86.35
2023-05-22T04:03:23.175Z,86.13
2023-05-22T04:04:26.859Z,85.98
2023-05-22T04:05:28.643Z,86.10
2023-05-22T04:06:34.884Z,86.00
2023-05-22T04:07:37.052Z,85.81
2023-05-22T04:08:38.793Z,85.71
2023-05-22T04:09:41.191Z,85.79
2023-05-22T04:10:46.358Z,85.97
2023-05-22T04:11:48.710Z,85.95
2023-05-22T04:12:51.270Z,86.06
2023-05-22T04:13:52.918Z,86.15
2023-05-22T04:14:54.705Z,85.74
2023-05-22T04:15:56.892Z,85.92
2023-05-22T04:16:59.508Z,85.76
2023-05-22T04:18:01.162Z,86.00
2023-05-22T04:19:06.040Z,85.59
2023-05-22T04:20:08.806Z,85.23
2023-05-22T04:21:10.561Z,85.28
2023-05-22T04:22:13.814Z,84.82
2023-05-22T04:23:15.450Z,84.63
2023-05-22T04:24:18.309Z,84.41
2023-05-22T04:25:21.083Z,84.30
2023-05-22T04:26:22.761Z,84.18
2023-05-22T04:27:24.854Z,84.29
2023-05-22T04:28:26.732Z,84.16
2023-05-22T04:29:29.083Z,84.00
2023-05-22T04:30:33.976Z,84.15
2023-05-22T04:31:36.884Z,84.11
2023-05-22T04:32:40.887Z,84.37
2023-05-22T04:33:42.791Z,84.31
2023-05-22T04:34:47.615Z,84.53
2023-05-22T04:35:51.523Z,84.40
2023-05-22T04:36:53.256Z,84.59
2023-05-22T04:37:56.633Z,84.81
2023-05-22T04:39:02.500Z,84.69
2023-05-22T04:40:07.514Z,84.59
2023-05-22T04:41:09.328Z,84.51
2023-05-22T04:42:14.394Z,84.56
2023-05-22T04:43:18.705Z,84.76
2023-05-22T04:44:23.843Z,84.62
2023-05-22T04:45:28.697Z,84.51
2023-05-22T04:46:34.469Z,84.70
2023-05-22T04:47:38.347Z,84.47
2023-05-22T04:48:42.120Z,84.67
2023-05-22T04:49:45.581Z,84.80
2023-05-22T04:50:48.383Z,84.77
2023-05-22T04:51:50.030Z,84.75
2023-05-22T04:52:53.535Z,85.01
2023-05-22T04:53:55.805Z,84.65
2023-05-22T04:54:58.815Z,84.62
2023-05-22T04:56:02.058Z,84.62
2023-05-22T04:57:05.362Z,84.72
2023-05-22T04:58:07.172Z,84.87
2023-05-22T04:59:10.279Z,84.66
2023-05-22T05:00:14.876Z,84.52
2023-05-22T05:01:17.039Z,84.41
2023-05-22T05:02:18.932Z,84.48
2023-05-22T05:03:21.138Z,84.42
2023-05-22T05:04:22.933Z,84.35
2023-05-22T05:05:24.837Z,83.82
2023-05-22T05:06:27.483Z,83.75
2023-05-22T05:07:29.482Z,83.37
2023-05-22T05:08:32.197Z,83.12
2023-05-22T05:09:33.989Z,83.21
2023-05-22T05:10:36.672Z,83.13
2023-05-22T05:11:38.551Z,82.73
2023-05-22T05:12:40.219Z,82.88
2023-05-22T05:13:42.987Z,82.62
2023-05-22T05:14:45.035Z,82.43
2023-05-22T05:15:50.140Z,82.29
2023-05-22T05:16:52.396Z,81.65
2023-05-22T05:17:54.328Z,81.59
2023-05-22T05:18:56.047Z,81.53
2023-05-22T05:19:57.742Z,81.62
2023-05-22T05:20:59.940Z,81.11
2023-05-22T05:22:01.579Z,80.75
2023-05-22T05:23:04.116Z,80.50
2023-05-22T05:24:06.582Z,80.55
2023-05-22T05:25:10.933Z,80.57
2023-05-22T05:26:14.226Z,80.17
2023-05-22T05:27:16.011Z,79.90
2023-05-22T05:28:19.802Z,79.80
2023-05-22T05:29:21.549Z,79.01
2023-05-22T05:30:31.646Z,79.17
2023-05-22T05:31:42.367Z,79.36
2023-05-22T05:32:53.969Z,79.12
2023-05-22T05:34:05.770Z,78.76
2023-05-22T05:35:26.095Z,78.61
2023-05-22T05:36:57.434Z,78.36
2023-05-22T05:38:00.364Z,78.13
2023-05-22T05:39:02.810Z,77.58
2023-05-22T05:40:08.788Z,77.58
2023-05-22T05:41:13.645Z,77.71
2023-05-22T05:42:17.941Z,77.59
2023-05-22T05:43:23.380Z,77.42
2023-05-22T05:44:25.730Z,77.10
2023-05-22T05:45:27.552Z,76.77
2023-05-22T05:46:29.331Z,76.53
2023-05-22T05:47:31.093Z,76.68
2023-05-22T05:48:33.727Z,76.39
2023-05-22T05:49:36.031Z,76.73
2023-05-22T05:50:39.150Z,75.79
2023-05-22T05:51:41.273Z,76.13
2023-05-22T05:52:43.645Z,75.72
2023-05-22T05:53:49.896Z,76.08
2023-05-22T05:54:52.755Z,75.63
2023-05-22T05:55:56.629Z,75.61
2023-05-22T05:56:58.618Z,75.09
2023-05-22T05:58:00.454Z,73.24
2023-05-22T05:59:14.993Z,72.72
2023-05-22T06:00:35.233Z,72.30
2023-05-22T06:01:38.800Z,73.00
2023-05-22T06:02:50.333Z,72.15
2023-05-22T06:04:09.058Z,73.23
2023-05-22T06:05:13.782Z,73.79
2023-05-22T06:06:17.589Z,73.23
2023-05-22T06:07:39.650Z,72.70
2023-05-22T06:08:43.533Z,73.02
2023-05-22T06:09:45.449Z,72.92
2023-05-22T06:10:56.286Z,72.70
2023-05-22T06:12:21.281Z,72.06
2023-05-22T06:13:23.085Z,70.51
2023-05-22T06:14:25.512Z,71.18
2023-05-22T06:15:27.701Z,71.46
2023-05-22T06:16:30.076Z,70.60
2023-05-22T06:17:31.789Z,70.24
2023-05-22T06:18:33.901Z,71.59
2023-05-22T06:19:35.760Z,70.72
2023-05-22T06:20:39.544Z,71.09
2023-05-22T06:21:41.788Z,70.61
2023-05-22T06:22:43.897Z,70.50
2023-05-22T06:23:45.497Z,71.26
2023-05-22T06:24:47.952Z,69.95
2023-05-22T06:25:54.006Z,70.30
2023-05-22T06:26:56.454Z,69.79
2023-05-22T06:27:58.235Z,69.49
2023-05-22T06:29:00.030Z,67.44
2023-05-22T06:30:03.733Z,69.08
2023-05-22T06:31:10.414Z,69.08
2023-05-22T06:32:15.758Z,69.67
2023-05-22T06:33:18.673Z,70.44
2023-05-22T06:34:22.450Z,69.70
2023-05-22T06:35:25.519Z,70.26
2023-05-22T06:36:27.471Z,70.26
2023-05-22T06:37:32.971Z,70.44
2023-05-22T06:38:37.918Z,70.15
2023-05-22T06:39:40.712Z,70.21
2023-05-22T06:40:48.561Z,70.36
2023-05-22T06:41:54.232Z,70.35
2023-05-22T06:42:57.917Z,70.31
2023-05-22T06:44:07.586Z,70.70
2023-05-22T06:45:13.738Z,70.40
2023-05-22T06:46:26.219Z,69.45
2023-05-22T06:47:32.939Z,69.53
2023-05-22T06:48:37.946Z,69.57
2023-05-22T06:49:59.909Z,68.75
2023-05-22T06:51:02.042Z,69.32
2023-05-22T06:52:05.412Z,68.34
2023-05-22T06:53:07.709Z,69.29
2023-05-22T06:54:12.400Z,67.82
2023-05-22T06:55:15.749Z,68.40
2023-05-22T06:56:29.975Z,67.68
2023-05-22T06:57:34.769Z,68.01
2023-05-22T06:58:39.728Z,67.58
2023-05-22T06:59:41.639Z,66.05
2023-05-22T07:01:15.125Z,67.10
2023-05-22T07:02:24.824Z,67.51
2023-05-22T07:03:49.451Z,66.76
2023-05-22T07:05:20.232Z,67.25
2023-05-22T07:06:33.668Z,67.25
2023-05-22T07:07:36.716Z,67.21
2023-05-22T07:08:38.537Z,66.47
2023-05-22T07:09:40.258Z,66.67
2023-05-22T07:10:42.039Z,66.46
2023-05-22T07:11:44.074Z,66.51
2023-05-22T07:12:47.638Z,66.78
2023-05-22T07:13:49.713Z,66.10
2023-05-22T07:14:55.140Z,65.48
2023-05-22T07:15:58.970Z,65.66
2023-05-22T07:17:01.602Z,65.60
2023-05-22T07:18:10.372Z,64.39
2023-05-22T07:19:15.521Z,64.70
2023-05-22T07:20:17.722Z,64.99
2023-05-22T07:21:30.621Z,65.16
2023-05-22T07:22:32.852Z,64.96
2023-05-22T07:23:34.745Z,65.01
2023-05-22T07:24:36.506Z,64.89
2023-05-22T07:25:38.995Z,64.79
2023-05-22T07:26:46.357Z,64.93
2023-05-22T07:27:48.823Z,64.41
2023-05-22T07:28:50.768Z,64.00
2023-05-22T07:29:52.587Z,63.10
2023-05-22T07:30:54.982Z,63.88
2023-05-22T07:31:57.817Z,63.71
2023-05-22T07:33:01.307Z,63.94
2023-05-22T07:34:03.167Z,63.78
2023-05-22T07:35:05.719Z,62.49
2023-05-22T07:36:08.856Z,62.69
2023-05-22T07:37:14.488Z,62.85
2023-05-22T07:38:18.659Z,62.54
2023-05-22T07:39:29.900Z,61.45
2023-05-22T07:40:31.710Z,62.19
2023-05-22T07:41:33.824Z,60.37
2023-05-22T07:42:35.633Z,60.96
2023-05-22T07:43:39.235Z,61.59
2023-05-22T07:44:41.695Z,60.95
2023-05-22T07:45:46.493Z,61.04
2023-05-22T07:46:51.989Z,61.07
2023-05-22T07:48:00.942Z,61.50
2023-05-22T07:49:06.276Z,59.73
2023-05-22T07:50:09.640Z,59.95
2023-05-22T07:51:15.005Z,59.79
2023-05-22T07:52:17.221Z,60.16
2023-05-22T07:53:19.292Z,60.38
2023-05-22T07:54:24.887Z,60.63
2023-05-22T07:55:26.930Z,60.94
2023-05-22T07:56:28.830Z,59.52
2023-05-22T07:57:31.329Z,58.40
2023-05-22T07:58:40.054Z,59.97
2023-05-22T07:59:44.138Z,60.41
2023-05-22T08:00:46.333Z,60.36
2023-05-22T08:01:47.981Z,60.75
2023-05-22T08:02:49.884Z,61.12
2023-05-22T08:03:52.109Z,61.32
2023-05-22T08:04:56.410Z,61.56
2023-05-22T08:05:58.854Z,59.33
2023-05-22T08:07:01.667Z,59.50
2023-05-22T08:08:04.707Z,58.05
2023-05-22T08:09:06.416Z,58.98
2023-05-22T08:10:15.865Z,57.73
2023-05-22T08:11:17.515Z,58.99
2023-05-22T08:12:19.243Z,59.04
2023-05-22T08:13:22.528Z,59.25
2023-05-22T08:14:24.404Z,57.78
2023-05-22T08:15:26.481Z,58.10
2023-05-22T08:16:28.398Z,57.76
2023-05-22T08:17:30.180Z,56.48
2023-05-22T08:18:32.016Z,57.81
2023-05-22T08:19:34.061Z,57.99
2023-05-22T08:20:35.965Z,56.25
2023-05-22T08:21:37.833Z,57.44
2023-05-22T08:22:40.783Z,57.03
2023-05-22T08:23:42.505Z,56.22
2023-05-22T08:24:44.301Z,55.46
2023-05-22T08:25:45.978Z,57.16
2023-05-22T08:26:47.635Z,56.57
2023-05-22T08:27:49.573Z,56.58
2023-05-22T08:28:52.518Z,57.11
2023-05-22T08:29:54.295Z,57.31
2023-05-22T08:30:55.948Z,56.22
2023-05-22T08:31:58.272Z,54.98
2023-05-22T08:33:00.267Z,55.26
2023-05-22T08:34:06.336Z,55.94
2023-05-22T08:35:08.312Z,56.61
2023-05-22T08:36:10.059Z,55.98
2023-05-22T08:37:12.553Z,56.95
2023-05-22T08:38:14.908Z,54.63
2023-05-22T08:39:16.544Z,55.74
2023-05-22T08:40:20.563Z,56.18
2023-05-22T08:41:22.429Z,56.41
2023-05-22T08:42:24.611Z,54.49
2023-05-22T08:43:28.543Z,55.76
2023-05-22T08:44:30.247Z,55.91
2023-05-22T08:45:34.352Z,56.32
2023-05-22T08:46:40.405Z,54.81
2023-05-22T08:47:44.677Z,54.31
2023-05-22T08:48:47.835Z,54.56
2023-05-22T08:49:51.887Z,54.57
2023-05-22T08:50:58.340Z,54.60
2023-05-22T08:52:07.874Z,54.29
2023-05-22T08:53:13.592Z,53.12
2023-05-22T08:54:17.313Z,53.58
2023-05-22T08:55:19.767Z,53.66
2023-05-22T08:56:22.224Z,52.78
2023-05-22T08:57:24.778Z,53.91
2023-05-22T08:58:27.270Z,54.12
2023-05-22T08:59:30.604Z,53.54
2023-05-22T09:00:33.690Z,54.29
2023-05-22T09:01:35.605Z,54.25
2023-05-22T09:02:38.725Z,53.51
2023-05-22T09:03:42.040Z,53.40
2023-05-22T09:04:44.546Z,53.05
2023-05-22T09:05:46.662Z,53.88
2023-05-22T09:06:48.909Z,52.02
2023-05-22T09:07:50.567Z,53.52
2023-05-22T09:08:53.333Z,53.82
2023-05-22T09:09:55.870Z,52.87
2023-05-22T09:10:57.729Z,51.79
2023-05-22T09:11:59.848Z,52.81
2023-05-22T09:13:09.658Z,51.90
2023-05-22T09:14:11.634Z,52.88
2023-05-22T09:15:15.534Z,52.90
2023-05-22T09:16:20.468Z,49.86
2023-05-22T09:17:23.383Z,50.82
2023-05-22T09:18:31.978Z,50.86
2023-05-22T09:19:36.065Z,50.68
2023-05-22T09:20:41.775Z,51.13
2023-05-22T09:21:48.091Z,51.19
2023-05-22T09:22:52.957Z,51.39
2023-05-22T09:23:59.097Z,50.70
2023-05-22T09:25:01.193Z,49.34
2023-05-22T09:26:04.532Z,50.13
2023-05-22T09:27:06.966Z,48.90
2023-05-22T09:28:09.229Z,49.32
2023-05-22T09:29:11.022Z,49.03
2023-05-22T09:30:16.401Z,48.72
2023-05-22T09:31:18.203Z,49.29
2023-05-22T09:32:20.312Z,49.01
2023-05-22T09:33:23.546Z,50.00
2023-05-22T09:34:30.015Z,48.39
2023-05-22T09:35:32.644Z,47.51
2023-05-22T09:36:35.855Z,49.32
2023-05-22T09:37:37.707Z,49.10
2023-05-22T09:38:39.837Z,49.68
2023-05-22T09:39:44.944Z,49.83
2023-05-22T09:40:46.618Z,47.12
2023-05-22T09:41:48.921Z,48.89
2023-05-22T09:42:50.590Z,47.61
2023-05-22T09:43:54.086Z,48.70
2023-05-22T09:44:55.707Z,48.69
2023-05-22T09:46:00.425Z,48.82
2023-05-22T09:47:03.658Z,49.71
2023-05-22T09:48:06.538Z,48.06
2023-05-22T09:49:08.614Z,48.48
2023-05-22T09:50:10.823Z,46.93
2023-05-22T09:51:13.688Z,47.75
2023-05-22T09:52:17.841Z,47.12
2023-05-22T09:53:20.889Z,47.65
2023-05-22T09:54:26.167Z,46.97
2023-05-22T09:55:28.201Z,47.46
2023-05-22T09:56:39.047Z,46.62
2023-05-22T09:57:48.530Z,47.00
2023-05-22T09:58:52.643Z,47.23
2023-05-22T09:59:58.385Z,46.57
2023-05-22T10:01:01.971Z,46.44
2023-05-22T10:02:06.060Z,46.67
2023-05-22T10:03:16.023Z,46.94
2023-05-22T10:04:18.929Z,47.96
2023-05-22T10:05:22.157Z,48.46
2023-05-22T10:06:26.930Z,47.90
2023-05-22T10:07:37.596Z,46.62
2023-05-22T10:08:46.251Z,46.04
2023-05-22T10:09:50.962Z,45.68
2023-05-22T10:10:53.522Z,46.30
2023-05-22T10:12:04.048Z,47.58
2023-05-22T10:13:06.573Z,47.21
2023-05-22T10:14:09.226Z,48.29
2023-05-22T10:15:12.047Z,47.73
2023-05-22T10:16:16.714Z,47.44
2023-05-22T10:17:18.811Z,47.66
2023-05-22T10:18:20.514Z,47.98
2023-05-22T10:19:27.090Z,46.71
2023-05-22T10:20:29.869Z,46.45
2023-05-22T10:21:35.581Z,47.38
2023-05-22T10:22:38.470Z,47.75
2023-05-22T10:23:41.531Z,47.63
2023-05-22T10:24:43.683Z,46.33
2023-05-22T10:25:46.127Z,46.14
2023-05-22T10:26:48.590Z,45.97
2023-05-22T10:27:53.626Z,46.21
2023-05-22T10:29:05.020Z,44.78
2023-05-22T10:30:22.028Z,46.32
2023-05-22T10:32:01.616Z,46.72
2023-05-22T10:33:18.131Z,45.23
2023-05-22T10:34:30.201Z,46.04
2023-05-22T10:35:52.700Z,47.03
2023-05-22T10:37:19.677Z,46.26
2023-05-22T10:38:54.133Z,45.41
2023-05-22T10:40:02.316Z,44.32
2023-05-22T10:41:04.960Z,45.76
2023-05-22T10:42:13.598Z,46.89
2023-05-22T10:43:15.227Z,44.89
2023-05-22T10:44:18.130Z,45.41
2023-05-22T10:45:20.377Z,45.92
2023-05-22T10:46:22.063Z,45.72
2023-05-22T10:47:23.882Z,45.03
2023-05-22T10:48:25.926Z,44.44
2023-05-22T10:49:28.678Z,45.10
2023-05-22T10:50:30.635Z,45.17
2023-05-22T10:51:32.480Z,44.58
2023-05-22T10:52:35.640Z,45.40
2023-05-22T10:53:37.408Z,46.45
2023-05-22T10:54:46.218Z,46.02
2023-05-22T10:56:02.660Z,44.06
2023-05-22T10:57:13.773Z,44.19
2023-05-22T10:58:17.558Z,45.05
2023-05-22T10:59:34.924Z,45.01
2023-05-22T11:00:37.985Z,43.23
2023-05-22T11:01:40.454Z,43.71
2023-05-22T11:03:17.316Z,41.61
2023-05-22T11:04:25.729Z,42.55
2023-05-22T11:05:29.860Z,42.51
2023-05-22T11:06:38.921Z,42.80
2023-05-22T11:07:41.397Z,43.88
2023-05-22T11:08:43.024Z,44.43
2023-05-22T11:09:48.918Z,44.31
2023-05-22T11:10:59.300Z,44.33
2023-05-22T11:12:30.304Z,44.02
2023-05-22T11:13:35.808Z,45.35
2023-05-22T11:14:38.038Z,42.85
2023-05-22T11:15:45.578Z,42.73
2023-05-22T11:16:47.438Z,44.03
2023-05-22T11:17:51.831Z,42.72
2023-05-22T11:19:21.308Z,42.47
2023-05-22T11:20:31.115Z,42.63
2023-05-22T11:21:35.742Z,43.80
2023-05-22T11:22:41.850Z,43.03
2023-05-22T11:23:43.741Z,43.22
2023-05-22T11:24:46.461Z,44.31
2023-05-22T11:25:48.144Z,43.25
2023-05-22T11:27:10.190Z,43.19
2023-05-22T11:28:12.575Z,43.29
2023-05-22T11:29:14.799Z,43.42
2023-05-22T11:30:17.427Z,42.30
2023-05-22T11:31:20.701Z,43.06
2023-05-22T11:32:24.473Z,42.90
2023-05-22T11:33:26.672Z,42.94
2023-05-22T11:34:28.581Z,42.62
2023-05-22T11:35:30.486Z,42.26
2023-05-22T11:36:32.513Z,42.42
2023-05-22T11:37:38.714Z,42.07
2023-05-22T11:38:42.231Z,41.55
2023-05-22T11:39:44.046Z,42.02
2023-05-22T11:40:45.634Z,42.12
2023-05-22T11:41:50.574Z,42.23
2023-05-22T11:42:55.561Z,41.41
2023-05-22T11:43:57.181Z,42.13
2023-05-22T11:45:00.036Z,42.33
2023-05-22T11:46:07.305Z,42.28
2023-05-22T11:47:09.249Z,41.03
2023-05-22T11:48:14.650Z,40.25
2023-05-22T11:49:17.375Z,41.54
2023-05-22T11:50:33.433Z,41.07
2023-05-22T11:51:41.246Z,41.99
2023-05-22T11:52:43.788Z,42.19
2023-05-22T11:53:45.467Z,42.77
2023-05-22T11:54:47.624Z,41.96
2023-05-22T11:55:49.815Z,42.64
2023-05-22T11:56:51.436Z,40.21
2023-05-22T11:57:55.478Z,40.15
2023-05-22T11:58:57.328Z,41.44
2023-05-22T11:59:59.122Z,41.36
2023-05-22T12:01:02.647Z,41.68
2023-05-22T12:02:04.606Z,42.39
2023-05-22T12:03:06.617Z,41.88
2023-05-22T12:04:08.634Z,41.85
2023-05-22T12:05:11.940Z,42.44
2023-05-22T12:06:15.785Z,41.48
2023-05-22T12:07:19.085Z,41.77
2023-05-22T12:08:20.918Z,42.51
2023-05-22T12:09:23.407Z,41.88
2023-05-22T12:10:26.025Z,41.35
2023-05-22T12:11:28.421Z,42.78
2023-05-22T12:12:30.765Z,40.92
2023-05-22T12:13:32.680Z,41.66
2023-05-22T12:14:34.713Z,41.01
2023-05-22T12:15:36.344Z,41.40
2023-05-22T12:16:38.129Z,41.07
2023-05-22T12:17:40.203Z,41.41
2023-05-22T12:18:42.098Z,41.70
2023-05-22T12:19:45.134Z,41.85
2023-05-22T12:20:47.283Z,42.16
2023-05-22T12:21:52.442Z,41.02
2023-05-22T12:22:55.994Z,41.44
2023-05-22T12:23:57.905Z,40.76
2023-05-22T12:24:59.791Z,41.26
2023-05-22T12:26:04.549Z,41.92
2023-05-22T12:27:09.486Z,41.60
2023-05-22T12:28:11.344Z,41.74
2023-05-22T12:29:13.548Z,42.02
2023-05-22T12:30:16.603Z,41.49
2023-05-22T12:31:22.885Z,41.46
2023-05-22T12:32:25.685Z,41.93
2023-05-22T12:33:29.260Z,42.06
2023-05-22T12:34:35.545Z,40.82
2023-05-22T12:35:38.712Z,39.84
2023-05-22T12:36:42.554Z,40.97
2023-05-22T12:37:51.792Z,40.18
2023-05-22T12:38:55.465Z,40.82
2023-05-22T12:40:03.445Z,41.64
2023-05-22T12:41:05.515Z,41.02
2023-05-22T12:42:08.737Z,41.11
2023-05-22T12:43:10.388Z,40.46
2023-05-22T12:44:12.766Z,40.92
2023-05-22T12:45:14.981Z,41.04
2023-05-22T12:46:16.607Z,41.56
2023-05-22T12:47:18.602Z,40.31
2023-05-22T12:48:20.349Z,40.53
2023-05-22T12:49:21.965Z,40.73
2023-05-22T12:50:24.757Z,40.59
2023-05-22T12:51:31.277Z,41.36
2023-05-22T12:52:35.052Z,41.53
2023-05-22T12:53:36.659Z,41.71
2023-05-22T12:54:38.602Z,42.62
2023-05-22T12:55:40.926Z,42.12
2023-05-22T12:56:42.690Z,41.22
2023-05-22T12:57:44.730Z,40.50
2023-05-22T12:58:46.472Z,40.70
2023-05-22T12:59:48.148Z,40.72
2023-05-22T13:00:52.576Z,40.40
2023-05-22T13:01:54.758Z,40.57
2023-05-22T13:02:56.640Z,40.87
2023-05-22T13:03:58.505Z,40.10
2023-05-22T13:05:00.564Z,41.47
2023-05-22T13:06:02.274Z,41.27
2023-05-22T13:07:06.074Z,41.24
2023-05-22T13:08:07.768Z,41.66
2023-05-22T13:09:09.850Z,41.77
2023-05-22T13:10:11.644Z,40.48
2023-05-22T13:11:13.658Z,40.65
2023-05-22T13:12:15.269Z,40.89
2023-05-22T13:13:17.393Z,40.25
2023-05-22T13:14:21.558Z,40.24
2023-05-22T13:15:23.434Z,38.97
2023-05-22T13:16:25.114Z,40.14
2023-05-22T13:17:27.653Z,40.88
2023-05-22T13:18:29.745Z,41.05
2023-05-22T13:19:31.626Z,40.83
2023-05-22T13:20:35.096Z,40.79
2023-05-22T13:21:36.823Z,41.52
2023-05-22T13:22:38.638Z,40.94
2023-05-22T13:23:40.340Z,39.14
2023-05-22T13:24:42.232Z,39.84
2023-05-22T13:25:43.983Z,39.93
2023-05-22T13:26:45.724Z,40.55
2023-05-22T13:27:47.578Z,40.74
2023-05-22T13:28:49.539Z,40.82
2023-05-22T13:29:51.466Z,39.49
2023-05-22T13:30:53.683Z,39.14
2023-05-22T13:31:55.289Z,39.69
2023-05-22T13:32:56.946Z,40.27
2023-05-22T13:34:01.601Z,39.46
2023-05-22T13:35:05.107Z,39.50
2023-05-22T13:36:06.908Z,39.86
2023-05-22T13:37:09.045Z,39.38
2023-05-22T13:38:10.664Z,39.42
2023-05-22T13:39:12.518Z,39.42
2023-05-22T13:40:15.447Z,39.01
2023-05-22T13:41:17.788Z,40.02
2023-05-22T13:42:20.035Z,39.83
2023-05-22T13:43:21.795Z,39.37
2023-05-22T13:44:23.982Z,38.62
2023-05-22T13:45:27.550Z,38.80
2023-05-22T13:46:29.310Z,39.77
2023-05-22T13:47:31.036Z,39.04
2023-05-22T13:48:32.728Z,39.35
2023-05-22T13:49:34.538Z,38.74